createdAt,value
2022-09-20T00:01:08.243Z,0.38
2022-09-20T00:03:36.922Z,0.30
2022-09-20T00:06:05.854Z,0.30
2022-09-20T00:08:33.887Z,0.45
2022-09-20T00:11:02.664Z,0.50
2022-09-20T00:13:31.118Z,0.50
2022-09-20T00:15:58.897Z,0.40
2022-09-20T00:18:28.234Z,0.50
2022-09-20T00:20:55.556Z,0.30
2022-09-20T00:23:22.889Z,0.30
2022-09-20T00:25:56.894Z,0.30
2022-09-20T00:28:24.685Z,0.30
2022-09-20T00:30:52.902Z,0.30
2022-09-20T00:33:20.273Z,0.25
2022-09-20T00:35:48.670Z,0.30
2022-09-20T00:38:16.934Z,0.30
2022-09-20T00:40:45.932Z,0.30
2022-09-20T00:43:15.485Z,0.30
2022-09-20T00:45:47.108Z,0.30
2022-09-20T00:48:20.307Z,0.40
2022-09-20T00:50:55.201Z,0.40
2022-09-20T00:53:27.769Z,0.30
2022-09-20T00:55:58.247Z,0.30
2022-09-20T00:58:27.986Z,0.30
2022-09-20T01:00:57.498Z,0.30
2022-09-20T01:03:27.388Z,0.20
2022-09-20T01:05:57.118Z,0.30
2022-09-20T01:08:25.377Z,0.30
2022-09-20T01:10:53.431Z,0.40
2022-09-20T01:13:20.782Z,0.30
2022-09-20T01:15:50.326Z,0.30
2022-09-20T01:18:19.636Z,0.30
2022-09-20T01:20:49.199Z,0.38
2022-09-20T01:23:32.771Z,0.30
2022-09-20T01:26:41.754Z,0.30
2022-09-20T01:29:24.857Z,0.32
2022-09-20T01:31:55.487Z,0.30
2022-09-20T01:34:29.674Z,0.30
2022-09-20T01:37:05.870Z,0.30
2022-09-20T01:39:40.903Z,0.30
2022-09-20T01:42:11.510Z,0.40
2022-09-20T01:44:48.962Z,0.30
2022-09-20T01:47:28.691Z,0.40
2022-09-20T01:50:11.108Z,0.38
2022-09-20T01:53:08.599Z,0.40
2022-09-20T01:56:11.137Z,0.35
2022-09-20T01:59:24.299Z,0.30
2022-09-20T02:02:22.806Z,0.40
2022-09-20T02:05:13.096Z,0.30
2022-09-20T02:08:08.795Z,0.30
2022-09-20T02:10:50.270Z,0.30
2022-09-20T02:13:30.134Z,0.30
2022-09-20T02:16:19.016Z,0.40
2022-09-20T02:19:15.750Z,0.30
2022-09-20T02:21:53.547Z,0.38
2022-09-20T02:24:29.407Z,0.32
2022-09-20T02:27:08.706Z,0.40
2022-09-20T02:29:47.147Z,0.40
2022-09-20T02:32:26.741Z,0.32
2022-09-20T02:35:20.718Z,0.30
2022-09-20T02:37:58.555Z,0.30
2022-09-20T02:40:39.293Z,0.40
2022-09-20T02:43:16.012Z,0.40
2022-09-20T02:45:51.490Z,0.30
2022-09-20T02:48:25.250Z,0.35
2022-09-20T02:51:00.431Z,0.40
2022-09-20T02:53:38.331Z,0.38
2022-09-20T02:56:17.439Z,0.30
2022-09-20T02:58:53.838Z,0.30
2022-09-20T03:01:36.062Z,0.30
2022-09-20T03:04:17.452Z,0.30
2022-09-20T03:06:52.773Z,0.30
2022-09-20T03:09:28.909Z,0.30
2022-09-20T03:12:05.221Z,0.30
2022-09-20T03:17:42.335Z,0.40
2022-09-20T03:20:23.315Z,0.40
2022-09-20T03:22:59.849Z,0.40
2022-09-20T03:25:40.751Z,0.30
2022-09-20T03:28:23.477Z,0.32
2022-09-20T03:31:01.505Z,0.40
2022-09-20T03:33:45.511Z,0.40
2022-09-20T03:36:28.106Z,0.32
2022-09-20T03:39:11.999Z,0.40
2022-09-20T03:41:55.415Z,0.40
2022-09-20T03:44:47.823Z,0.30
2022-09-20T03:47:27.871Z,0.30
2022-09-20T03:50:11.178Z,0.30
2022-09-20T03:52:58.979Z,0.30
2022-09-20T03:56:01.889Z,0.30
2022-09-20T03:58:56.879Z,0.30
2022-09-20T04:04:08.282Z,0.40
2022-09-20T04:06:49.019Z,0.30
2022-09-20T04:09:30.121Z,0.40
2022-09-20T04:12:06.861Z,0.40
2022-09-20T04:14:41.611Z,0.32
2022-09-20T04:17:32.233Z,0.40
2022-09-20T04:20:06.929Z,0.40
2022-09-20T04:22:36.313Z,0.40
2022-09-20T04:25:07.858Z,0.45
2022-09-20T04:27:42.935Z,0.38
2022-09-20T04:30:19.310Z,0.50
2022-09-20T04:32:52.851Z,0.40
2022-09-20T04:35:51.764Z,0.40
2022-09-20T04:38:21.583Z,0.40
2022-09-20T04:41:06.175Z,0.47
2022-09-20T04:43:56.492Z,0.40
2022-09-20T04:46:56.069Z,0.40
2022-09-20T04:50:00.119Z,0.38
2022-09-20T04:53:04.018Z,0.40
2022-09-20T04:55:52.846Z,0.40
2022-09-20T04:58:37.091Z,0.40
2022-09-20T05:01:37.621Z,0.50
2022-09-20T05:04:44.322Z,0.40
2022-09-20T05:07:49.576Z,0.40
2022-09-20T05:13:17.760Z,0.38
2022-09-20T05:15:55.640Z,0.30
2022-09-20T05:18:54.908Z,0.35
2022-09-20T05:22:08.175Z,0.40
2022-09-20T05:25:07.942Z,0.40
2022-09-20T05:27:44.291Z,0.40
2022-09-20T05:30:22.869Z,0.40
2022-09-20T05:33:01.836Z,0.40
2022-09-20T05:35:38.165Z,0.40
2022-09-20T05:38:17.019Z,0.40
2022-09-20T05:41:04.322Z,0.30
2022-09-20T05:43:34.780Z,0.38
2022-09-20T05:46:16.254Z,0.30
2022-09-20T05:48:55.987Z,0.30
2022-09-20T05:51:43.002Z,0.35
2022-09-20T05:54:33.043Z,0.30
2022-09-20T05:57:13.198Z,0.40
2022-09-20T05:59:55.253Z,0.30
2022-09-20T06:02:33.654Z,0.45
2022-09-20T06:05:09.577Z,0.40
2022-09-20T06:08:04.926Z,0.40
2022-09-20T06:10:43.464Z,0.40
2022-09-20T06:13:30.716Z,0.40
2022-09-20T06:16:01.657Z,0.30
2022-09-20T06:18:35.662Z,0.45
2022-09-20T06:21:14.582Z,0.47
2022-09-20T06:23:43.736Z,0.40
2022-09-20T06:26:17.326Z,0.40
2022-09-20T06:28:49.114Z,0.30
2022-09-20T06:31:17.937Z,0.40
2022-09-20T06:33:53.936Z,0.40
2022-09-20T06:36:45.612Z,0.38
2022-09-20T06:39:40.961Z,0.40
2022-09-20T06:42:10.871Z,0.40
2022-09-20T06:44:41.229Z,0.40
2022-09-20T06:47:10.943Z,0.40
2022-09-20T06:49:39.450Z,0.50
2022-09-20T06:52:07.770Z,0.40
2022-09-20T06:54:37.243Z,0.40
2022-09-20T06:57:07.190Z,0.30
2022-09-20T06:59:34.531Z,0.30
2022-09-20T07:02:02.206Z,0.40
2022-09-20T07:04:29.771Z,0.40
2022-09-20T07:07:01.035Z,0.45
2022-09-20T07:09:29.002Z,0.40
2022-09-20T07:11:59.107Z,0.63
2022-09-20T07:14:27.202Z,0.40
2022-09-20T07:16:54.679Z,0.50
2022-09-20T07:19:22.698Z,1.25
2022-09-20T07:21:50.264Z,0.50
2022-09-20T07:24:18.016Z,0.50
2022-09-20T07:26:56.155Z,0.60
2022-09-20T07:29:25.168Z,0.60
2022-09-20T07:31:52.989Z,0.55
2022-09-20T07:34:20.783Z,0.68
2022-09-20T07:36:48.305Z,0.70
2022-09-20T07:39:15.706Z,0.65
2022-09-20T07:41:45.382Z,0.60
2022-09-20T07:44:24.212Z,0.65
2022-09-20T07:46:54.251Z,0.50
2022-09-20T07:49:21.972Z,0.50
2022-09-20T07:51:50.298Z,0.60
2022-09-20T07:54:18.177Z,0.70
2022-09-20T07:56:46.919Z,0.55
2022-09-20T07:59:15.176Z,0.57
2022-09-20T08:01:42.587Z,0.60
2022-09-20T08:04:11.904Z,0.50
2022-09-20T08:06:40.991Z,0.68
2022-09-20T08:09:11.369Z,0.60
2022-09-20T08:11:40.480Z,0.45
2022-09-20T08:14:17.820Z,0.60
2022-09-20T08:16:47.449Z,0.70
2022-09-20T08:19:19.022Z,0.50
2022-09-20T08:21:46.365Z,0.50
2022-09-20T08:24:14.921Z,0.70
2022-09-20T08:26:42.552Z,0.60
2022-09-20T08:29:10.282Z,0.70
2022-09-20T08:31:40.258Z,0.60
2022-09-20T08:34:10.580Z,0.60
2022-09-20T08:36:42.031Z,0.63
2022-09-20T08:42:11.799Z,0.60
2022-09-20T08:44:47.738Z,0.50
2022-09-20T08:47:20.338Z,0.70
2022-09-20T08:49:48.148Z,0.60
2022-09-20T08:52:19.921Z,0.80
2022-09-20T08:54:47.432Z,0.70
2022-09-20T08:57:17.975Z,0.60
2022-09-20T08:59:45.729Z,0.50
2022-09-20T09:02:17.511Z,0.65
2022-09-20T09:04:45.629Z,0.40
2022-09-20T09:07:15.055Z,0.50
2022-09-20T09:09:46.514Z,0.50
2022-09-20T09:12:21.795Z,0.50
2022-09-20T09:14:52.311Z,0.40
2022-09-20T09:17:27.179Z,0.40
2022-09-20T09:19:56.807Z,0.57
2022-09-20T09:22:32.093Z,0.50
2022-09-20T09:25:32.118Z,0.40
2022-09-20T09:28:02.123Z,0.50
2022-09-20T09:30:32.339Z,0.50
2022-09-20T09:33:18.306Z,0.52
2022-09-20T09:35:54.103Z,0.50
2022-09-20T09:38:24.126Z,0.50
2022-09-20T09:40:54.776Z,0.40
2022-09-20T09:43:27.027Z,0.40
2022-09-20T09:45:55.269Z,0.40
2022-09-20T09:48:27.582Z,0.43
2022-09-20T09:51:12.627Z,0.50
2022-09-20T09:53:40.692Z,0.40
2022-09-20T09:56:30.224Z,0.50
2022-09-20T09:59:25.949Z,0.40
2022-09-20T10:02:01.564Z,0.40
2022-09-20T10:04:36.751Z,0.40
2022-09-20T10:07:11.528Z,0.40
2022-09-20T10:09:55.313Z,0.45
2022-09-20T10:12:45.607Z,0.40
2022-09-20T10:15:37.311Z,0.40
2022-09-20T10:18:22.951Z,0.50
2022-09-20T10:21:03.043Z,0.40
2022-09-20T10:24:03.168Z,0.38
2022-09-20T10:26:43.778Z,0.50
2022-09-20T10:29:26.063Z,0.50
2022-09-20T10:32:03.686Z,0.60
2022-09-20T10:35:06.734Z,0.50
2022-09-20T10:37:49.351Z,0.50
2022-09-20T10:40:48.289Z,0.55
2022-09-20T10:43:30.993Z,0.40
2022-09-20T10:49:05.005Z,0.38
2022-09-20T10:51:44.995Z,0.25
2022-09-20T10:54:26.527Z,0.40
2022-09-20T10:57:19.625Z,0.38
2022-09-20T10:59:53.665Z,0.40
2022-09-20T11:02:36.134Z,0.50
2022-09-20T11:05:19.828Z,0.40
2022-09-20T11:07:59.625Z,0.38
2022-09-20T11:10:36.086Z,0.20
2022-09-20T11:13:08.766Z,0.40
2022-09-20T11:15:43.364Z,0.30
2022-09-20T11:18:20.933Z,0.30
2022-09-20T11:20:57.466Z,0.20
2022-09-20T11:23:30.679Z,0.30
2022-09-20T11:26:05.945Z,0.30
2022-09-20T11:28:40.193Z,0.30
2022-09-20T11:33:46.475Z,0.30
2022-09-20T11:36:20.044Z,0.40
2022-09-20T11:38:53.293Z,0.30
2022-09-20T11:41:26.981Z,0.30
2022-09-20T11:43:56.662Z,0.20
2022-09-20T11:46:28.826Z,0.30
2022-09-20T11:49:02.468Z,0.30
2022-09-20T11:52:09.701Z,0.30
2022-09-20T11:54:57.842Z,0.30
2022-09-20T11:57:26.101Z,0.35
2022-09-20T11:59:57.226Z,0.30
2022-09-20T12:02:34.039Z,0.30
2022-09-20T12:05:05.372Z,0.30
2022-09-20T12:07:37.963Z,0.30
2022-09-20T12:10:09.162Z,0.30
2022-09-20T12:12:41.538Z,0.20
2022-09-20T12:15:24.754Z,0.20
2022-09-20T12:18:38.068Z,0.30
2022-09-20T12:21:14.990Z,0.20
2022-09-20T12:24:22.353Z,0.30
2022-09-20T12:26:52.242Z,0.20
2022-09-20T12:30:15.940Z,0.30
2022-09-20T12:32:50.534Z,0.30
2022-09-20T12:35:59.922Z,0.28
2022-09-20T12:38:31.185Z,0.30
2022-09-20T12:41:00.693Z,0.30
2022-09-20T12:43:30.073Z,0.30
2022-09-20T12:46:02.867Z,0.30
2022-09-20T12:48:37.821Z,0.20
2022-09-20T12:51:31.962Z,0.30
2022-09-20T12:54:02.798Z,0.30
2022-09-20T12:56:34.177Z,0.30
2022-09-20T12:59:05.737Z,0.30
2022-09-20T13:01:39.226Z,0.20
2022-09-20T13:04:41.828Z,0.80
2022-09-20T13:07:34.904Z,0.20
2022-09-20T13:10:06.694Z,0.30
2022-09-20T13:12:40.254Z,0.30
2022-09-20T13:15:15.827Z,0.23
2022-09-20T13:17:45.080Z,0.20
2022-09-20T13:20:21.643Z,0.30
2022-09-20T13:22:49.671Z,0.20
2022-09-20T13:25:20.333Z,0.20
2022-09-20T13:27:52.294Z,0.30
2022-09-20T13:30:21.990Z,0.20
2022-09-20T13:32:51.333Z,0.25
2022-09-20T13:35:22.555Z,0.40
2022-09-20T13:37:55.775Z,0.50
2022-09-20T13:40:32.068Z,0.50
2022-09-20T13:43:22.612Z,0.50
2022-09-20T13:45:55.439Z,0.40
2022-09-20T13:48:25.694Z,0.40
2022-09-20T13:50:54.808Z,0.47
2022-09-20T13:53:40.584Z,0.40
2022-09-20T13:56:11.182Z,0.50
2022-09-20T13:58:39.015Z,0.30
2022-09-20T14:01:19.800Z,0.50
2022-09-20T14:03:48.440Z,0.40
2022-09-20T14:06:17.331Z,0.30
2022-09-20T14:08:47.713Z,0.20
2022-09-20T14:11:17.744Z,0.15
2022-09-20T14:13:48.503Z,0.20
2022-09-20T14:16:18.809Z,0.30
2022-09-20T14:18:48.036Z,0.30
2022-09-20T14:21:22.795Z,0.20
2022-09-20T14:23:52.418Z,0.20
2022-09-20T14:26:25.941Z,0.28
2022-09-20T14:28:53.423Z,0.50
2022-09-20T14:31:24.981Z,0.40
2022-09-20T14:33:55.623Z,0.30
2022-09-20T14:36:27.475Z,0.20
2022-09-20T14:38:57.965Z,0.20
2022-09-20T14:41:28.763Z,0.20
2022-09-20T14:44:02.538Z,0.20
2022-09-20T14:46:33.775Z,0.20
2022-09-20T14:49:32.711Z,0.20
2022-09-20T14:52:38.915Z,0.20
2022-09-20T14:55:20.623Z,0.20
2022-09-20T14:57:48.789Z,0.20
2022-09-20T15:00:18.863Z,0.20
2022-09-20T15:02:47.660Z,0.20
2022-09-20T15:05:21.426Z,0.28
2022-09-20T15:07:50.633Z,0.20
2022-09-20T15:10:18.109Z,0.20
2022-09-20T15:12:45.626Z,0.20
2022-09-20T15:15:18.796Z,0.20
2022-09-20T15:17:47.525Z,0.20
2022-09-20T15:20:23.186Z,0.20
2022-09-20T15:22:52.834Z,0.20
2022-09-20T15:25:21.884Z,0.20
2022-09-20T15:27:50.815Z,0.20
2022-09-20T15:30:20.901Z,0.20
2022-09-20T15:32:48.836Z,0.20
2022-09-20T15:35:16.302Z,0.20
2022-09-20T15:37:43.645Z,0.20
2022-09-20T15:40:12.905Z,0.20
2022-09-20T15:42:41.485Z,0.20
2022-09-20T15:45:11.097Z,0.20
2022-09-20T15:47:39.522Z,0.20
2022-09-20T15:50:08.953Z,0.30
2022-09-20T15:52:39.718Z,0.30
2022-09-20T15:55:08.255Z,0.20
2022-09-20T15:57:36.934Z,0.20
2022-09-20T16:00:05.018Z,0.22
2022-09-20T16:02:32.412Z,0.28
2022-09-20T16:04:59.812Z,0.20
2022-09-20T16:07:27.386Z,0.20
2022-09-20T16:09:55.785Z,0.20
2022-09-20T16:12:24.885Z,0.30
2022-09-20T16:14:53.601Z,0.30
2022-09-20T16:17:41.509Z,0.20
2022-09-20T16:20:08.611Z,0.20
2022-09-20T16:22:35.986Z,0.20
2022-09-20T16:25:05.846Z,0.20
2022-09-20T16:27:34.349Z,0.20
2022-09-20T16:30:03.578Z,0.30
2022-09-20T16:32:30.978Z,0.30
2022-09-20T16:35:01.087Z,0.20
2022-09-20T16:37:32.964Z,0.30
2022-09-20T16:40:00.625Z,0.20
2022-09-20T16:42:29.142Z,0.20
2022-09-20T16:44:57.227Z,0.20
2022-09-20T16:47:26.224Z,0.20
2022-09-20T16:49:54.152Z,0.30
2022-09-20T16:52:22.038Z,0.30
2022-09-20T16:54:49.780Z,0.30
2022-09-20T16:57:17.180Z,0.38
2022-09-20T16:59:45.361Z,0.20
2022-09-20T17:02:15.826Z,0.20
2022-09-20T17:04:44.512Z,0.30
2022-09-20T17:07:12.301Z,0.30
2022-09-20T17:09:39.831Z,0.30
2022-09-20T17:12:09.411Z,0.30
2022-09-20T17:14:37.827Z,0.30
2022-09-20T17:17:05.194Z,0.40
2022-09-20T17:19:33.309Z,0.20
2022-09-20T17:22:02.208Z,0.20
2022-09-20T17:24:30.392Z,0.20
2022-09-20T17:26:57.757Z,0.20
2022-09-20T17:29:25.098Z,0.20
2022-09-20T17:31:56.715Z,0.20
2022-09-20T17:34:26.242Z,0.20
2022-09-20T17:36:55.317Z,0.20
2022-09-20T17:39:24.657Z,0.20
2022-09-20T17:41:52.539Z,0.20
2022-09-20T17:44:20.166Z,0.17
2022-09-20T17:46:49.550Z,0.20
2022-09-20T17:49:19.291Z,0.30
2022-09-20T17:51:48.058Z,0.30
2022-09-20T17:54:16.195Z,0.30
2022-09-20T17:56:46.407Z,0.20
2022-09-20T17:59:16.060Z,0.20
2022-09-20T18:01:44.655Z,0.28
2022-09-20T18:04:12.549Z,0.30
2022-09-20T18:06:42.106Z,0.25
2022-09-20T18:09:11.357Z,0.20
2022-09-20T18:11:40.799Z,0.28
2022-09-20T18:14:11.130Z,0.30
2022-09-20T18:16:38.763Z,0.30
2022-09-20T18:19:07.328Z,0.30
2022-09-20T18:21:36.158Z,0.40
2022-09-20T18:24:06.572Z,0.40
2022-09-20T18:26:34.521Z,0.43
2022-09-20T18:29:05.096Z,0.40
2022-09-20T18:31:36.654Z,0.50
2022-09-20T18:34:05.848Z,0.50
2022-09-20T18:36:36.032Z,0.38
2022-09-20T18:39:03.655Z,0.30
2022-09-20T18:41:33.597Z,0.20
2022-09-20T18:44:04.064Z,0.25
2022-09-20T18:46:32.070Z,0.20
2022-09-20T18:49:04.640Z,0.30
2022-09-20T18:51:37.183Z,0.30
2022-09-20T18:54:09.073Z,0.20
2022-09-20T18:56:38.224Z,0.30
2022-09-20T18:59:07.483Z,0.30
2022-09-20T19:01:53.488Z,0.30
2022-09-20T19:04:32.949Z,0.20
2022-09-20T19:07:08.664Z,0.20
2022-09-20T19:09:43.968Z,0.25
2022-09-20T19:12:18.728Z,0.25
2022-09-20T19:15:00.597Z,0.20
2022-09-20T19:17:50.486Z,0.30
2022-09-20T19:20:28.170Z,0.30
2022-09-20T19:23:05.556Z,0.30
2022-09-20T19:25:42.441Z,0.28
2022-09-20T19:28:12.421Z,0.30
2022-09-20T19:30:42.381Z,0.30
2022-09-20T19:33:16.726Z,0.30
2022-09-20T19:38:31.301Z,0.20
2022-09-20T19:41:08.762Z,0.20
2022-09-20T19:43:57.786Z,0.30
2022-09-20T19:46:42.297Z,0.25
2022-09-20T19:49:15.173Z,0.30
2022-09-20T19:51:45.437Z,0.30
2022-09-20T19:54:14.878Z,0.30
2022-09-20T19:56:52.854Z,0.30
2022-09-20T19:59:21.292Z,0.20
2022-09-20T20:01:49.839Z,0.25
2022-09-20T20:04:17.858Z,0.30
2022-09-20T20:06:55.832Z,0.30
2022-09-20T20:09:33.556Z,0.30
2022-09-20T20:12:04.034Z,0.30
2022-09-20T20:14:38.939Z,0.30
2022-09-20T20:17:21.679Z,0.30
2022-09-20T20:20:01.629Z,0.40
2022-09-20T20:22:43.397Z,0.32
2022-09-20T20:25:26.379Z,0.40
2022-09-20T20:27:53.812Z,0.50
2022-09-20T20:30:21.343Z,0.40
2022-09-20T20:32:48.658Z,0.40
2022-09-20T20:35:17.170Z,0.50
2022-09-20T20:37:47.317Z,0.40
2022-09-20T20:40:14.994Z,0.40
2022-09-20T20:42:43.739Z,0.40
2022-09-20T20:45:11.702Z,0.30
2022-09-20T20:47:39.857Z,0.30
2022-09-20T20:50:07.834Z,0.32
2022-09-20T20:52:35.180Z,0.30
2022-09-20T20:55:04.105Z,0.30
2022-09-20T20:57:31.891Z,0.30
2022-09-20T20:59:59.299Z,0.30
2022-09-20T21:02:26.650Z,0.30
2022-09-20T21:04:54.128Z,0.47
2022-09-20T21:07:21.715Z,0.40
2022-09-20T21:09:49.100Z,0.40
2022-09-20T21:12:18.431Z,0.30
2022-09-20T21:14:45.805Z,0.30
2022-09-20T21:17:13.131Z,0.30
2022-09-20T21:19:40.474Z,0.40
2022-09-20T21:22:07.819Z,0.30
2022-09-20T21:24:35.163Z,0.30
2022-09-20T21:27:04.634Z,0.40
2022-09-20T21:29:33.382Z,0.40
2022-09-20T21:32:00.716Z,0.32
2022-09-20T21:34:28.040Z,0.40
2022-09-20T21:36:55.449Z,0.40
2022-09-20T21:39:23.796Z,0.40
2022-09-20T21:41:52.327Z,0.40
2022-09-20T21:44:20.466Z,0.30
2022-09-20T21:46:49.941Z,0.32
2022-09-20T21:49:17.762Z,0.40
2022-09-20T21:51:45.169Z,0.40
2022-09-20T21:54:12.585Z,0.40
2022-09-20T21:56:40.747Z,0.50
2022-09-20T21:59:09.343Z,0.40
2022-09-20T22:01:38.392Z,0.40
2022-09-20T22:04:09.354Z,0.40
2022-09-20T22:06:38.782Z,0.40
2022-09-20T22:09:08.303Z,0.40
2022-09-20T22:11:38.774Z,0.40
2022-09-20T22:14:07.613Z,0.40
2022-09-20T22:16:36.775Z,0.40
2022-09-20T22:19:05.439Z,0.38
2022-09-20T22:21:36.656Z,0.30
2022-09-20T22:24:06.153Z,0.50
2022-09-20T22:26:35.878Z,0.40
2022-09-20T22:29:04.663Z,0.40
2022-09-20T22:31:34.146Z,0.40
2022-09-20T22:34:03.865Z,0.40
2022-09-20T22:36:35.055Z,0.32
2022-09-20T22:39:03.030Z,0.40
2022-09-20T22:41:30.389Z,0.40
2022-09-20T22:43:57.787Z,0.40
2022-09-20T22:46:27.151Z,0.30
2022-09-20T22:48:54.739Z,0.40
2022-09-20T22:51:23.758Z,0.40
2022-09-20T22:53:53.050Z,0.40
2022-09-20T22:56:22.155Z,0.30
2022-09-20T22:58:51.379Z,0.38
2022-09-20T23:01:20.370Z,0.40
2022-09-20T23:03:53.375Z,0.30
2022-09-20T23:06:22.883Z,0.30
2022-09-20T23:08:53.231Z,0.30
2022-09-20T23:11:21.250Z,0.30
2022-09-20T23:13:48.646Z,0.20
2022-09-20T23:16:18.505Z,0.30
2022-09-20T23:18:46.695Z,0.38
2022-09-20T23:21:14.675Z,0.30
2022-09-20T23:23:43.232Z,0.30
2022-09-20T23:26:13.416Z,0.40
2022-09-20T23:28:42.617Z,0.22
2022-09-20T23:31:12.513Z,0.30
2022-09-20T23:33:44.747Z,0.30
2022-09-20T23:36:14.081Z,0.30
2022-09-20T23:38:41.464Z,0.30
2022-09-20T23:41:14.920Z,0.30
2022-09-20T23:43:44.508Z,0.30
2022-09-20T23:46:14.284Z,0.40
2022-09-20T23:48:42.252Z,0.40
2022-09-20T23:51:11.394Z,0.45
2022-09-20T23:53:38.805Z,0.30
2022-09-20T23:56:07.163Z,0.30
2022-09-20T23:58:36.633Z,0.30
